Time;durP1;ratioP1;P1;durP2;ratioP2;P2;SDS_P1;SDS_P2;PMS_P1;PMS_P2;Temp;Humidity;BMP_temperature;BMP_pressure;BME280_temperature;BME280_humidity;BME280_pressure;Samples;Min_cycle;Max_cycle;Signal;HPM_P1;HPM_P2
2023/11/07 00:00:57;;;;;;;;;;;;;;;9.39;71.73;99501.13;1088730;47;1491;-82
2023/11/07 00:01:58;;;;;;;;;;;;;;;9.40;71.29;99494.81;1088767;47;1538;-82
2023/11/07 00:03:24;;;;;;;;;;;;;;;9.41;71.38;99509.84;1088757;54;1647;-81
2023/11/07 00:04:27;;;;;;;;;;;;;;;9.42;71.31;99506.19;1088703;47;974;-80
2023/11/07 00:07:04;;;;;;;;;;;;;;;9.41;71.43;99503.63;1088807;47;1727;-83
2023/11/07 00:08:42;;;;;;;;;;;;;;;9.34;71.58;99508.75;1088664;54;1766;-83
2023/11/07 00:23:13;;;;;;;;;;;;;;;9.22;72.53;99516.09;1088768;54;774;-79
2023/11/07 00:24:18;;;;;;;;;;;;;;;9.20;72.64;99502.09;1088447;47;920;-79
2023/11/07 00:25:26;;;;;;;;;;;;;;;9.25;72.59;99515.81;1088469;46;930;-81
2023/11/07 00:26:34;;;;;;;;;;;;;;;9.30;72.36;99507.38;1088594;54;977;-82
2023/11/07 00:29:05;;;;;;;;;;;;;;;9.35;72.44;99518.44;1088398;47;1267;-81
2023/11/07 00:30:10;;;;;;;;;;;;;;;9.34;72.25;99511.44;1088453;46;1352;-82
2023/11/07 00:31:14;;;;;;;;;;;;;;;9.31;72.47;99514.38;1088413;47;992;-84
2023/11/07 00:32:19;;;;;;;;;;;;;;;9.25;72.69;99513.16;1088283;54;931;-80
2023/11/07 00:33:22;;;;;;;;;;;;;;;9.33;72.42;99513.25;1088620;47;859;-83
2023/11/07 00:34:44;;;;;;;;;;;;;;;9.35;72.27;99516.59;1088646;47;1055;-84
2023/11/07 00:40:49;;;;;;;;;;;;;;;9.32;72.60;99510.72;1088036;54;1152;-81
2023/11/07 00:41:52;;;;;;;;;;;;;;;9.37;72.44;99508.44;1088314;47;952;-82
2023/11/07 00:42:56;;;;;;;;;;;;;;;9.37;72.05;99497.78;1088329;47;976;-81
2023/11/07 00:44:00;;;;;;;;;;;;;;;9.38;72.08;99504.78;1088255;47;942;-82
2023/11/07 00:45:04;;;;;;;;;;;;;;;9.40;72.14;99500.16;1088280;47;952;-81
2023/11/07 00:46:04;;;;;;;;;;;;;;;9.41;72.44;99498.31;1088313;54;1024;-82
2023/11/07 00:47:08;;;;;;;;;;;;;;;9.43;72.06;99502.53;1088350;54;887;-80
2023/11/07 00:48:09;;;;;;;;;;;;;;;9.40;72.23;99505.47;1088366;54;969;-82
2023/11/07 00:49:16;;;;;;;;;;;;;;;9.41;72.18;99507.16;1088227;54;1381;-82
2023/11/07 00:50:22;;;;;;;;;;;;;;;9.36;72.16;99517.44;1088318;47;938;-78
2023/11/07 00:51:37;;;;;;;;;;;;;;;9.42;72.32;99522.19;1088467;54;962;-80
2023/11/07 00:52:39;;;;;;;;;;;;;;;9.42;72.17;99511.50;1088626;47;933;-82
2023/11/07 00:53:49;;;;;;;;;;;;;;;9.45;72.42;99518.38;1088718;54;1024;-82
2023/11/07 00:54:51;;;;;;;;;;;;;;;9.47;72.28;99519.91;1088552;47;977;-82
2023/11/07 00:55:58;;;;;;;;;;;;;;;9.39;72.74;99516.31;1088276;47;938;-81
2023/11/07 00:56:59;;;;;;;;;;;;;;;9.42;72.41;99522.19;1088388;54;940;-80
2023/11/07 00:58:04;;;;;;;;;;;;;;;9.39;72.97;99521.66;1088357;47;1050;-81
2023/11/07 00:59:11;;;;;;;;;;;;;;;9.43;72.74;99526.53;1088455;47;1235;-79
2023/11/07 01:00:19;;;;;;;;;;;;;;;9.37;73.15;99519.13;1088436;47;1848;-80
2023/11/07 01:01:27;;;;;;;;;;;;;;;9.34;72.98;99524.78;1088270;47;993;-82
2023/11/07 01:02:31;;;;;;;;;;;;;;;9.39;73.08;99517.13;1088191;47;952;-81
2023/11/07 01:05:04;;;;;;;;;;;;;;;9.36;72.96;99525.44;1088181;47;963;-81
2023/11/07 01:06:47;;;;;;;;;;;;;;;9.33;72.93;99521.25;1088158;54;1020;-80
2023/11/07 01:07:40;;;;;;;;;;;;;;;9.33;73.22;99523.09;1088134;47;1004;-82
2023/11/07 01:08:49;;;;;;;;;;;;;;;9.36;73.12;99528.09;1088058;47;1351;-82
2023/11/07 01:09:59;;;;;;;;;;;;;;;9.35;73.12;99526.44;1088096;47;902;-82
2023/11/07 01:11:06;;;;;;;;;;;;;;;9.36;73.11;99522.75;1087952;47;970;-82
2023/11/07 01:12:17;;;;;;;;;;;;;;;9.30;73.32;99523.38;1088210;47;909;-81
2023/11/07 01:13:18;;;;;;;;;;;;;;;9.29;73.28;99519.03;1088288;54;916;-81
2023/11/07 01:14:32;;;;;;;;;;;;;;;9.34;73.01;99524.78;1088288;54;990;-81
2023/11/07 01:15:45;;;;;;;;;;;;;;;9.27;73.58;99518.31;1088290;47;962;-82
2023/11/07 01:16:49;;;;;;;;;;;;;;;9.28;73.62;99517.34;1088269;47;966;-80
2023/11/07 01:17:50;;;;;;;;;;;;;;;9.25;73.48;99518.50;1088199;47;998;-79
2023/11/07 01:18:55;;;;;;;;;;;;;;;9.25;73.69;99520.34;1088167;47;1336;-81
2023/11/07 01:19:59;;;;;;;;;;;;;;;9.33;73.47;99521.25;1088066;47;1846;-81
2023/11/07 01:21:14;;;;;;;;;;;;;;;9.28;73.42;99520.00;1088180;47;907;-80
2023/11/07 01:22:20;;;;;;;;;;;;;;;9.27;73.78;99513.00;1088074;47;945;-79
2023/11/07 01:23:20;;;;;;;;;;;;;;;9.30;73.49;99518.03;1088201;54;1016;-80
2023/11/07 01:24:24;;;;;;;;;;;;;;;9.26;73.52;99516.69;1088118;47;901;-82
2023/11/07 01:25:27;;;;;;;;;;;;;;;9.29;73.49;99517.22;1088242;54;1017;-81
2023/11/07 01:26:41;;;;;;;;;;;;;;;9.26;73.55;99514.84;1088116;47;857;-82
2023/11/07 01:27:42;;;;;;;;;;;;;;;9.26;73.42;99516.69;1088103;47;932;-80
2023/11/07 01:28:46;;;;;;;;;;;;;;;9.31;73.23;99507.22;1087942;47;1255;-79
2023/11/07 01:29:50;;;;;;;;;;;;;;;9.33;73.35;99510.56;1088186;54;996;-78
2023/11/07 01:30:54;;;;;;;;;;;;;;;9.29;73.37;99505.69;1088221;47;963;-82
2023/11/07 01:31:55;;;;;;;;;;;;;;;9.29;73.34;99511.03;1088225;47;977;-80
2023/11/07 01:32:59;;;;;;;;;;;;;;;9.32;73.33;99508.06;1088225;54;965;-80
2023/11/07 01:34:00;;;;;;;;;;;;;;;9.31;73.13;99504.53;1087997;54;966;-79
2023/11/07 01:35:07;;;;;;;;;;;;;;;9.33;73.26;99512.41;1087997;47;929;-82
2023/11/07 01:36:10;;;;;;;;;;;;;;;9.37;73.19;99511.09;1088310;54;987;-82
2023/11/07 01:37:11;;;;;;;;;;;;;;;9.33;73.21;99513.25;1088131;47;943;-81
2023/11/07 01:38:18;;;;;;;;;;;;;;;9.40;73.07;99510.81;1088380;47;971;-82
2023/11/07 01:39:19;;;;;;;;;;;;;;;9.40;73.14;99518.00;1088181;47;1226;-80
2023/11/07 01:40:20;;;;;;;;;;;;;;;9.42;72.76;99511.50;1088185;47;1855;-80
2023/11/07 01:41:23;;;;;;;;;;;;;;;9.39;72.88;99514.47;1087733;54;1160;-79
2023/11/07 01:42:27;;;;;;;;;;;;;;;9.36;72.92;99518.28;1088217;54;990;-79
2023/11/07 01:43:28;;;;;;;;;;;;;;;9.36;72.90;99509.44;1087960;47;945;-80
2023/11/07 01:44:34;;;;;;;;;;;;;;;9.39;72.82;99510.97;1088212;54;1001;-81
2023/11/07 01:45:36;;;;;;;;;;;;;;;9.36;73.34;99512.09;1088127;54;950;-81
2023/11/07 01:46:39;;;;;;;;;;;;;;;9.39;72.92;99509.13;1088101;47;980;-81
2023/11/07 01:47:42;;;;;;;;;;;;;;;9.37;72.91;99513.78;1088510;54;957;-83
2023/11/07 01:48:56;;;;;;;;;;;;;;;9.33;73.07;99517.75;1088481;54;1361;-80
2023/11/07 01:49:58;;;;;;;;;;;;;;;9.26;73.62;99524.69;1088709;47;994;-82
2023/11/07 01:51:03;;;;;;;;;;;;;;;9.20;73.52;99518.94;1088491;46;945;-79
2023/11/07 01:52:06;;;;;;;;;;;;;;;9.21;73.53;99519.75;1088298;47;950;-79
2023/11/07 01:53:10;;;;;;;;;;;;;;;9.14;73.98;99524.00;1088593;54;991;-82
2023/11/07 01:54:11;;;;;;;;;;;;;;;9.16;73.87;99522.88;1088695;54;994;-82
2023/11/07 01:55:24;;;;;;;;;;;;;;;9.17;73.69;99519.22;1088476;54;911;-80
2023/11/07 01:56:47;;;;;;;;;;;;;;;9.17;73.78;99519.22;1088624;54;829;-81
2023/11/07 01:58:11;;;;;;;;;;;;;;;9.19;73.76;99517.25;1088620;46;1012;-81
2023/11/07 01:59:12;;;;;;;;;;;;;;;9.15;73.61;99515.88;1088408;47;1252;-83
2023/11/07 02:00:19;;;;;;;;;;;;;;;9.11;73.95;99514.50;1088429;54;1845;-82
2023/11/07 02:01:23;;;;;;;;;;;;;;;9.23;73.69;99520.47;1088478;47;981;-82
2023/11/07 02:04:02;;;;;;;;;;;;;;;9.26;73.21;99511.34;1088386;47;951;-80
2023/11/07 02:05:03;;;;;;;;;;;;;;;9.30;73.06;99515.38;1088698;54;981;-81
2023/11/07 02:06:07;;;;;;;;;;;;;;;9.29;73.15;99516.34;1088502;54;945;-82
2023/11/07 02:07:25;;;;;;;;;;;;;;;9.20;73.01;99518.94;1088461;47;963;-82
2023/11/07 02:08:31;;;;;;;;;;;;;;;9.23;73.21;99514.28;1088501;47;1256;-81
2023/11/07 02:09:31;;;;;;;;;;;;;;;9.28;73.04;99520.00;1088612;46;891;-82
2023/11/07 02:10:45;;;;;;;;;;;;;;;9.23;72.81;99531.13;1088440;47;871;-84
2023/11/07 02:11:46;;;;;;;;;;;;;;;9.19;73.17;99522.59;1088550;54;959;-82
2023/11/07 02:12:50;;;;;;;;;;;;;;;9.17;73.11;99526.41;1088584;54;1037;-81
2023/11/07 02:13:55;;;;;;;;;;;;;;;9.11;73.42;99525.16;1088474;46;970;-83
2023/11/07 02:14:59;;;;;;;;;;;;;;;9.05;73.22;99523.91;1088460;47;943;-82
2023/11/07 02:16:01;;;;;;;;;;;;;;;8.99;73.49;99524.53;1088450;47;956;-81
2023/11/07 02:17:05;;;;;;;;;;;;;;;8.97;73.93;99528.34;1088482;47;952;-82
2023/11/07 02:18:06;;;;;;;;;;;;;;;8.97;73.60;99523.00;1088293;47;973;-83
2023/11/07 02:19:09;;;;;;;;;;;;;;;8.90;73.72;99522.75;1088344;47;1266;-81
2023/11/07 02:20:14;;;;;;;;;;;;;;;8.94;73.77;99529.44;1088421;46;926;-80
2023/11/07 02:21:17;;;;;;;;;;;;;;;8.88;73.86;99524.69;1088242;47;1859;-78
2023/11/07 02:22:26;;;;;;;;;;;;;;;8.89;74.07;99519.22;1088328;54;942;-79
2023/11/07 02:23:35;;;;;;;;;;;;;;;8.93;73.89;99516.25;1088299;47;953;-81
2023/11/07 02:24:37;;;;;;;;;;;;;;;8.81;74.03;99519.13;1088275;54;1035;-79
2023/11/07 02:25:41;;;;;;;;;;;;;;;8.87;74.08;99521.22;1088498;47;954;-79
2023/11/07 02:26:42;;;;;;;;;;;;;;;8.84;73.88;99518.81;1088297;47;930;-78
2023/11/07 02:27:46;;;;;;;;;;;;;;;8.77;74.38;99520.41;1088285;47;989;-82
2023/11/07 02:28:47;;;;;;;;;;;;;;;8.80;74.41;99519.28;1088410;46;1171;-80
2023/11/07 02:29:51;;;;;;;;;;;;;;;8.76;74.31;99518.72;1088350;47;1107;-81
2023/11/07 02:30:53;;;;;;;;;;;;;;;8.77;74.23;99512.41;1088396;54;1028;-80
2023/11/07 02:31:57;;;;;;;;;;;;;;;8.74;74.27;99510.03;1088423;47;996;-81
2023/11/07 02:33:04;;;;;;;;;;;;;;;8.83;73.88;99521.66;1088409;54;1085;-84
2023/11/07 02:34:11;;;;;;;;;;;;;;;8.78;74.23;99518.56;1088424;47;966;-81
2023/11/07 02:35:14;;;;;;;;;;;;;;;8.75;74.26;99519.72;1088136;47;1014;-80
2023/11/07 02:36:19;;;;;;;;;;;;;;;8.76;74.18;99512.53;1088308;47;942;-82
2023/11/07 02:37:21;;;;;;;;;;;;;;;8.73;74.39;99514.53;1087940;47;1039;-82
2023/11/07 02:38:47;;;;;;;;;;;;;;;8.71;74.39;99510.31;1088431;46;1305;-80
2023/11/07 02:39:53;;;;;;;;;;;;;;;8.71;74.40;99519.16;1088736;54;946;-82
2023/11/07 02:41:14;;;;;;;;;;;;;;;8.70;74.20;99516.63;1088434;47;1906;-80
2023/11/07 02:42:15;;;;;;;;;;;;;;;8.75;74.03;99517.03;1087828;54;1196;-83
2023/11/07 02:43:31;;;;;;;;;;;;;;;8.78;74.10;99516.75;1088523;47;943;-85
2023/11/07 02:44:35;;;;;;;;;;;;;;;8.73;74.24;99511.00;1088403;47;883;-81
2023/11/07 02:45:39;;;;;;;;;;;;;;;8.68;74.24;99510.63;1088204;54;965;-81
2023/11/07 02:48:35;;;;;;;;;;;;;;;8.68;74.50;99508.78;1088807;46;1346;-82
2023/11/07 02:49:38;;;;;;;;;;;;;;;8.67;74.48;99514.28;1088593;54;1046;-82
2023/11/07 02:50:42;;;;;;;;;;;;;;;8.65;74.65;99514.41;1088552;47;953;-82
2023/11/07 02:51:46;;;;;;;;;;;;;;;8.64;74.30;99507.41;1088660;47;889;-82
2023/11/07 02:52:58;;;;;;;;;;;;;;;8.61;74.79;99512.16;1088627;47;1035;-82
2023/11/07 02:55:54;;;;;;;;;;;;;;;8.68;74.51;99518.63;1088556;47;969;-82
2023/11/07 02:56:55;;;;;;;;;;;;;;;8.65;74.48;99513.56;1088457;47;876;-79
2023/11/07 02:57:59;;;;;;;;;;;;;;;8.66;74.65;99509.91;1088516;54;963;-83
2023/11/07 02:59:03;;;;;;;;;;;;;;;8.61;74.90;99509.50;1088172;46;1363;-81
2023/11/07 03:00:13;;;;;;;;;;;;;;;8.54;74.83;99515.41;1088538;47;894;-81
2023/11/07 03:02:54;;;;;;;;;;;;;;;8.53;74.75;99516.41;1088684;47;890;-80
2023/11/07 03:03:56;;;;;;;;;;;;;;;8.55;75.13;99516.25;1088459;47;1040;-81
2023/11/07 03:10:33;;;;;;;;;;;;;;;8.48;75.22;99516.00;1088662;54;1636;-80
2023/11/07 03:11:36;;;;;;;;;;;;;;;8.51;75.17;99515.69;1088459;54;1122;-82
2023/11/07 03:12:40;;;;;;;;;;;;;;;8.46;75.06;99512.63;1088943;54;965;-80
2023/11/07 03:13:40;;;;;;;;;;;;;;;8.51;75.43;99517.53;1088948;54;979;-82
2023/11/07 03:14:44;;;;;;;;;;;;;;;8.46;75.58;99520.59;1088681;47;950;-82
2023/11/07 03:15:46;;;;;;;;;;;;;;;8.41;75.49;99521.03;1088526;47;959;-81
2023/11/07 03:16:47;;;;;;;;;;;;;;;8.36;76.10;99520.59;1088600;47;938;-82
2023/11/07 03:17:51;;;;;;;;;;;;;;;8.36;75.92;99531.25;1088644;47;978;-81
2023/11/07 03:18:52;;;;;;;;;;;;;;;8.37;76.00;99526.78;1088501;47;1322;-82
2023/11/07 03:19:56;;;;;;;;;;;;;;;8.35;76.20;99528.75;1088543;46;947;-82
2023/11/07 03:20:57;;;;;;;;;;;;;;;8.36;75.81;99520.59;1088581;46;1849;-81
2023/11/07 03:22:00;;;;;;;;;;;;;;;8.37;75.84;99521.47;1088652;54;1030;-82
2023/11/07 03:23:02;;;;;;;;;;;;;;;8.41;76.02;99522.84;1088639;46;979;-82
2023/11/07 03:24:07;;;;;;;;;;;;;;;8.32;75.93;99518.38;1088518;54;970;-81
2023/11/07 03:25:09;;;;;;;;;;;;;;;8.34;76.18;99511.94;1088614;54;944;-82
2023/11/07 03:26:12;;;;;;;;;;;;;;;8.37;75.93;99521.47;1088611;54;982;-81
2023/11/07 03:27:16;;;;;;;;;;;;;;;8.36;75.72;99512.63;1088483;47;976;-81
2023/11/07 03:28:20;;;;;;;;;;;;;;;8.35;75.72;99513.63;1088522;54;1015;-83
2023/11/07 03:29:20;;;;;;;;;;;;;;;8.30;75.92;99504.38;1088487;47;1265;-80
2023/11/07 03:30:24;;;;;;;;;;;;;;;8.33;75.97;99506.75;1088610;54;934;-81
2023/11/07 03:31:32;;;;;;;;;;;;;;;8.33;75.95;99509.41;1088535;47;912;-83
2023/11/07 03:32:37;;;;;;;;;;;;;;;8.31;75.68;99517.53;1088467;47;1015;-81
2023/11/07 03:33:38;;;;;;;;;;;;;;;8.27;75.88;99510.81;1088513;54;989;-82
2023/11/07 03:34:43;;;;;;;;;;;;;;;8.25;75.98;99513.63;1088465;46;1003;-82
2023/11/07 03:35:46;;;;;;;;;;;;;;;8.23;76.19;99507.59;1088428;46;1016;-82
2023/11/07 03:36:50;;;;;;;;;;;;;;;8.30;75.86;99509.72;1088537;46;1070;-82
2023/11/07 03:37:52;;;;;;;;;;;;;;;8.28;76.05;99517.81;1088633;54;992;-82
2023/11/07 03:38:55;;;;;;;;;;;;;;;8.26;75.90;99509.16;1088462;47;1383;-82
2023/11/07 03:39:57;;;;;;;;;;;;;;;8.24;76.21;99514.59;1088507;46;892;-82
2023/11/07 03:41:00;;;;;;;;;;;;;;;8.26;76.04;99510.00;1088478;54;1852;-81
2023/11/07 03:42:01;;;;;;;;;;;;;;;8.23;75.95;99512.09;1088649;54;969;-81
2023/11/07 03:43:07;;;;;;;;;;;;;;;8.18;76.18;99511.66;1088521;47;984;-81
2023/11/07 03:44:15;;;;;;;;;;;;;;;8.19;76.21;99513.34;1088539;47;951;-83
2023/11/07 03:45:16;;;;;;;;;;;;;;;8.19;75.92;99513.34;1088564;46;954;-82
2023/11/07 03:46:19;;;;;;;;;;;;;;;8.17;75.93;99521.50;1088495;47;971;-82
2023/11/07 03:47:21;;;;;;;;;;;;;;;8.14;76.33;99515.63;1088515;54;966;-82
2023/11/07 03:48:25;;;;;;;;;;;;;;;8.19;76.11;99518.69;1088566;54;1343;-82
2023/11/07 03:49:49;;;;;;;;;;;;;;;8.25;76.06;99513.63;1088501;54;1011;-82
2023/11/07 03:52:44;;;;;;;;;;;;;;;8.21;75.63;99517.56;1088729;47;918;-83
2023/11/07 03:53:55;;;;;;;;;;;;;;;8.27;75.54;99517.00;1088694;46;985;-83
2023/11/07 04:05:00;;;;;;;;;;;;;;;8.20;75.89;99521.22;1088734;46;965;-82
2023/11/07 04:06:20;;;;;;;;;;;;;;;;;;;;;
2023/11/07 04:07:24;;;;;;;;;;;;;;;8.25;75.49;99526.94;1088895;54;800;-81
2023/11/07 04:08:25;;;;;;;;;;;;;;;8.30;75.90;99531.84;1088494;47;1255;-81
2023/11/07 04:09:29;;;;;;;;;;;;;;;8.33;75.34;99536.91;1088492;54;967;-82
2023/11/07 04:10:30;;;;;;;;;;;;;;;8.34;75.68;99532.41;1088324;47;980;-82
2023/11/07 04:11:33;;;;;;;;;;;;;;;8.36;75.34;99541.09;1088368;54;1013;-80
2023/11/07 04:12:46;;;;;;;;;;;;;;;8.27;75.48;99530.31;1088372;54;1024;-81
2023/11/07 04:13:47;;;;;;;;;;;;;;;8.27;75.44;99532.13;1088581;54;956;-81
2023/11/07 04:14:50;;;;;;;;;;;;;;;8.32;75.43;99529.88;1088411;47;836;-82
2023/11/07 04:15:51;;;;;;;;;;;;;;;8.31;75.63;99533.53;1088423;54;1049;-81
2023/11/07 04:16:55;;;;;;;;;;;;;;;8.23;75.79;99530.75;1088506;47;953;-82
2023/11/07 04:17:56;;;;;;;;;;;;;;;8.22;75.70;99537.88;1088528;54;911;-82
2023/11/07 04:18:59;;;;;;;;;;;;;;;8.23;75.85;99533.41;1088574;54;1332;-82
2023/11/07 04:20:01;;;;;;;;;;;;;;;8.20;75.70;99536.34;1088596;46;884;-80
2023/11/07 04:26:53;;;;;;;;;;;;;;;7.96;76.21;99537.63;1088038;54;1190;-80
2023/11/07 04:28:04;;;;;;;;;;;;;;;7.96;76.16;99532.31;1088579;47;1327;-80
2023/11/07 04:29:19;;;;;;;;;;;;;;;7.99;76.28;99517.88;1088431;54;1327;-79
2023/11/07 04:30:20;;;;;;;;;;;;;;;7.96;76.09;99530.47;1088555;54;982;-81
2023/11/07 04:31:24;;;;;;;;;;;;;;;7.90;76.59;99524.88;1088148;47;1236;-78
2023/11/07 04:32:34;;;;;;;;;;;;;;;7.86;76.90;99532.28;1088049;47;1169;-79
2023/11/07 04:33:38;;;;;;;;;;;;;;;7.93;76.60;99530.78;1088143;54;942;-79
2023/11/07 04:34:39;;;;;;;;;;;;;;;7.90;76.74;99535.50;1087869;47;1070;-78
2023/11/07 04:35:42;;;;;;;;;;;;;;;7.93;76.40;99530.78;1087513;47;1176;-80
2023/11/07 04:36:45;;;;;;;;;;;;;;;7.85;76.73;99532.44;1087562;47;1190;-81
2023/11/07 04:37:48;;;;;;;;;;;;;;;7.93;76.66;99541.41;1087073;47;1074;-80
2023/11/07 04:38:50;;;;;;;;;;;;;;;7.94;76.57;99532.44;1087772;54;1331;-78
2023/11/07 04:39:54;;;;;;;;;;;;;;;7.86;76.99;99526.13;1088210;54;1177;-80
2023/11/07 04:40:56;;;;;;;;;;;;;;;7.80;76.92;99524.88;1088470;54;1114;-80
2023/11/07 04:42:03;;;;;;;;;;;;;;;7.82;77.07;99528.25;1087887;47;1851;-80
2023/11/07 04:43:03;;;;;;;;;;;;;;;7.81;77.21;99529.22;1088292;47;1038;-81
2023/11/07 04:44:07;;;;;;;;;;;;;;;7.87;76.69;99528.66;1087962;46;1093;-81
2023/11/07 04:45:08;;;;;;;;;;;;;;;7.78;77.01;99532.16;1087741;54;1129;-80
2023/11/07 04:46:10;;;;;;;;;;;;;;;7.78;77.17;99526.84;1087997;54;1043;-81
2023/11/07 04:47:16;;;;;;;;;;;;;;;7.85;77.27;99529.78;1087278;47;1117;-80
2023/11/07 04:48:19;;;;;;;;;;;;;;;7.84;77.34;99525.44;1086838;54;1153;-80
2023/11/07 04:49:22;;;;;;;;;;;;;;;7.82;77.12;99528.25;1086389;54;1413;-79
2023/11/07 04:50:24;;;;;;;;;;;;;;;7.82;77.33;99530.91;1085781;50;1134;-79
2023/11/07 04:51:27;;;;;;;;;;;;;;;7.74;77.27;99530.75;1086358;54;1051;-80
2023/11/07 04:52:28;;;;;;;;;;;;;;;7.74;77.34;99530.75;1085997;47;1054;-79
2023/11/07 04:53:32;;;;;;;;;;;;;;;7.69;77.67;99523.19;1086396;47;1611;-78
2023/11/07 04:54:33;;;;;;;;;;;;;;;7.70;77.40;99530.19;1086241;47;1051;-79
2023/11/07 04:55:36;;;;;;;;;;;;;;;7.75;77.43;99537.75;1086264;54;1158;-80
2023/11/07 04:56:37;;;;;;;;;;;;;;;7.78;77.19;99532.16;1086740;54;1170;-79
2023/11/07 04:57:44;;;;;;;;;;;;;;;7.71;77.11;99536.34;1086040;47;1369;-79
2023/11/07 04:58:45;;;;;;;;;;;;;;;7.78;76.84;99529.50;1086004;47;1508;-78
2023/11/07 04:59:48;;;;;;;;;;;;;;;7.76;76.88;99526.97;1085964;54;1197;-79
2023/11/07 05:00:49;;;;;;;;;;;;;;;7.73;77.24;99534.41;1086591;47;1038;-77
2023/11/07 05:01:52;;;;;;;;;;;;;;;7.74;76.80;99530.75;1086091;54;1913;-79
2023/11/07 05:02:55;;;;;;;;;;;;;;;7.72;76.94;99532.72;1086288;54;1039;-79
2023/11/07 05:03:58;;;;;;;;;;;;;;;7.75;77.16;99532.41;1086432;54;1545;-79
2023/11/07 05:04:58;;;;;;;;;;;;;;;7.71;77.02;99536.34;1086081;47;1213;-79
2023/11/07 05:06:02;;;;;;;;;;;;;;;7.75;76.76;99530.63;1086233;54;1140;-78
2023/11/07 05:07:03;;;;;;;;;;;;;;;7.77;77.12;99535.78;1086438;47;1023;-80
2023/11/07 05:08:07;;;;;;;;;;;;;;;7.78;76.80;99533.00;1085907;54;1666;-80
2023/11/07 05:09:09;;;;;;;;;;;;;;;7.83;76.79;99535.25;1086398;54;1351;-80
2023/11/07 05:10:13;;;;;;;;;;;;;;;7.84;76.71;99542.22;1086478;47;1185;-80
2023/11/07 05:11:13;;;;;;;;;;;;;;;7.83;76.79;99531.72;1086317;54;1098;-78
2023/11/07 05:12:17;;;;;;;;;;;;;;;7.82;76.91;99533.56;1086300;47;1036;-79
2023/11/07 05:13:20;;;;;;;;;;;;;;;7.82;76.82;99538.88;1086239;47;1078;-80
2023/11/07 05:14:23;;;;;;;;;;;;;;;7.83;76.63;99537.06;1086295;54;1580;-81
2023/11/07 05:15:24;;;;;;;;;;;;;;;7.87;76.77;99531.31;1086503;54;1195;-81
2023/11/07 05:16:27;;;;;;;;;;;;;;;7.85;76.67;99533.25;1086212;47;995;-79
2023/11/07 05:17:28;;;;;;;;;;;;;;;7.93;76.17;99541.41;1086568;47;960;-79
2023/11/07 05:18:31;;;;;;;;;;;;;;;7.89;76.27;99540.00;1086593;54;1262;-79
2023/11/07 05:19:32;;;;;;;;;;;;;;;7.91;76.47;99532.72;1086821;54;1121;-80
2023/11/07 05:20:36;;;;;;;;;;;;;;;7.90;76.58;99541.69;1086414;54;1086;-80
2023/11/07 05:21:36;;;;;;;;;;;;;;;7.95;76.51;99541.28;1086527;47;1869;-79
2023/11/07 05:22:41;;;;;;;;;;;;;;;7.97;76.01;99537.47;1086949;54;1188;-79
2023/11/07 05:23:41;;;;;;;;;;;;;;;7.92;76.57;99538.88;1086778;47;1530;-79
2023/11/07 05:24:45;;;;;;;;;;;;;;;7.94;76.53;99540.41;1086818;54;1548;-79
2023/11/07 05:25:45;;;;;;;;;;;;;;;7.94;76.41;99547.56;1086810;47;991;-79
2023/11/07 05:26:49;;;;;;;;;;;;;;;7.92;76.50;99547.72;1086445;46;1503;-79
2023/11/07 05:27:49;;;;;;;;;;;;;;;7.89;76.41;99545.31;1086662;54;1066;-79
2023/11/07 05:28:55;;;;;;;;;;;;;;;7.94;76.51;99552.91;1087022;46;1354;-78
2023/11/07 05:29:56;;;;;;;;;;;;;;;7.91;76.69;99556.69;1087008;54;1340;-79
2023/11/07 05:30:58;;;;;;;;;;;;;;;7.89;77.00;99553.31;1087308;47;1018;-79
2023/11/07 05:32:01;;;;;;;;;;;;;;;7.90;76.80;99552.34;1087378;54;1497;-80
2023/11/07 05:33:03;;;;;;;;;;;;;;;7.89;76.85;99555.13;1086722;47;1153;-80
2023/11/07 05:34:03;;;;;;;;;;;;;;;7.87;76.98;99559.75;1086609;47;1036;-79
2023/11/07 05:35:08;;;;;;;;;;;;;;;7.86;76.77;99558.91;1086509;54;1085;-79
2023/11/07 05:36:09;;;;;;;;;;;;;;;7.88;76.92;99553.47;1086579;54;1146;-78
2023/11/07 05:37:14;;;;;;;;;;;;;;;7.92;76.82;99550.38;1086641;47;1065;-79
2023/11/07 05:38:15;;;;;;;;;;;;;;;7.92;76.67;99550.38;1086700;54;979;-78
2023/11/07 05:39:18;;;;;;;;;;;;;;;7.93;76.51;99552.06;1086690;54;1430;-79
2023/11/07 05:40:23;;;;;;;;;;;;;;;7.96;76.60;99554.44;1086796;54;1092;-79
2023/11/07 05:41:26;;;;;;;;;;;;;;;8.00;76.42;99556.81;1086817;47;1158;-81
2023/11/07 05:42:28;;;;;;;;;;;;;;;7.97;76.67;99558.78;1086409;46;1157;-80
2023/11/07 05:43:28;;;;;;;;;;;;;;;8.01;76.30;99555.84;1086784;46;1082;-79
2023/11/07 05:44:34;;;;;;;;;;;;;;;8.00;76.66;99556.81;1088087;54;1074;-80
2023/11/07 05:45:35;;;;;;;;;;;;;;;7.96;76.65;99559.75;1088196;54;1126;-80
2023/11/07 05:46:39;;;;;;;;;;;;;;;7.99;76.43;99561.28;1088093;47;1055;-80
2023/11/07 05:47:42;;;;;;;;;;;;;;;7.97;76.76;99566.75;1087071;54;1109;-78
2023/11/07 05:48:45;;;;;;;;;;;;;;;7.97;76.84;99563.28;1086709;47;1347;-79
2023/11/07 05:49:46;;;;;;;;;;;;;;;8.00;76.79;99562.16;1086783;54;1052;-79
2023/11/07 05:50:50;;;;;;;;;;;;;;;8.00;76.76;99562.16;1086990;54;1114;-78
2023/11/07 05:51:52;;;;;;;;;;;;;;;7.95;76.99;99560.72;1086762;47;999;-78
2023/11/07 05:52:55;;;;;;;;;;;;;;;7.96;77.01;99565.06;1087202;54;1082;-81
2023/11/07 05:53:56;;;;;;;;;;;;;;;7.93;77.30;99567.19;1087376;47;1149;-79
2023/11/07 05:55:00;;;;;;;;;;;;;;;7.98;77.21;99567.63;1087070;47;1141;-79
2023/11/07 05:56:01;;;;;;;;;;;;;;;7.96;77.75;99569.56;1087164;47;1024;-81
2023/11/07 05:57:05;;;;;;;;;;;;;;;7.98;77.40;99559.63;1087102;47;1078;-80
2023/11/07 05:58:07;;;;;;;;;;;;;;;7.99;77.51;99555.97;1087258;54;1345;-80
2023/11/07 05:59:11;;;;;;;;;;;;;;;8.03;77.57;99561.88;1087198;54;1344;-79
2023/11/07 06:00:17;;;;;;;;;;;;;;;8.05;77.32;99562.56;1087443;46;1090;-80
2023/11/07 06:01:20;;;;;;;;;;;;;;;8.03;77.65;99559.22;1087907;54;1063;-80
2023/11/07 06:02:21;;;;;;;;;;;;;;;8.01;77.95;99563.81;1088067;54;1844;-78
2023/11/07 06:03:25;;;;;;;;;;;;;;;8.01;78.17;99571.81;1087750;54;1138;-79
2023/11/07 06:04:29;;;;;;;;;;;;;;;8.01;77.93;99563.81;1087399;54;1166;-79
2023/11/07 06:05:34;;;;;;;;;;;;;;;7.99;78.05;99563.94;1087404;54;1055;-79
2023/11/07 06:06:34;;;;;;;;;;;;;;;8.02;78.17;99565.50;1087203;54;997;-80
2023/11/07 06:07:38;;;;;;;;;;;;;;;8.03;78.15;99561.88;1087195;47;1031;-80
2023/11/07 06:08:38;;;;;;;;;;;;;;;8.03;78.42;99567.19;1087098;47;1374;-81
2023/11/07 06:09:41;;;;;;;;;;;;;;;8.03;78.18;99561.88;1087079;54;1168;-80
2023/11/07 06:10:43;;;;;;;;;;;;;;;8.03;78.51;99560.03;1087100;47;1022;-79
2023/11/07 06:11:46;;;;;;;;;;;;;;;8.06;78.55;99566.91;1087280;54;1105;-78
2023/11/07 06:12:46;;;;;;;;;;;;;;;8.04;78.20;99563.53;1087318;54;1138;-79
2023/11/07 06:13:50;;;;;;;;;;;;;;;8.02;78.55;99561.00;1087065;54;1004;-78
2023/11/07 06:14:50;;;;;;;;;;;;;;;8.05;78.47;99565.22;1087041;54;1144;-80
2023/11/07 06:15:56;;;;;;;;;;;;;;;8.03;78.60;99561.88;1087188;47;1070;-80
2023/11/07 06:16:57;;;;;;;;;;;;;;;8.03;78.72;99564.53;1086961;46;1031;-79
2023/11/07 06:17:57;;;;;;;;;;;;;;;8.06;78.55;99565.09;1086979;54;1189;-79
2023/11/07 06:19:01;;;;;;;;;;;;;;;8.03;78.55;99561.88;1087171;54;1298;-79
2023/11/07 06:20:02;;;;;;;;;;;;;;;8.07;78.66;99568.59;1087130;54;1082;-79
2023/11/07 06:21:05;;;;;;;;;;;;;;;8.08;78.54;99567.59;1087273;54;1457;-79
2023/11/07 06:22:06;;;;;;;;;;;;;;;8.11;78.32;99565.50;1087196;51;1844;-78
2023/11/07 06:23:09;;;;;;;;;;;;;;;8.11;78.19;99562.84;1087130;46;1544;-79
2023/11/07 06:24:10;;;;;;;;;;;;;;;8.15;78.06;99563.38;1086697;47;1125;-78
2023/11/07 06:25:15;;;;;;;;;;;;;;;8.12;78.18;99561.03;1086697;47;1094;-79
2023/11/07 06:26:15;;;;;;;;;;;;;;;8.10;78.36;99563.00;1086639;54;1051;-79
2023/11/07 06:27:19;;;;;;;;;;;;;;;8.11;78.28;99562.00;1086524;54;1176;-80
2023/11/07 06:28:19;;;;;;;;;;;;;;;8.16;78.14;99558.91;1086822;47;1062;-79
2023/11/07 06:29:23;;;;;;;;;;;;;;;8.20;78.07;99562.97;1086898;54;1350;-80
2023/11/07 06:30:29;;;;;;;;;;;;;;;8.26;77.96;99560.59;1086944;47;1035;-79
2023/11/07 06:31:35;;;;;;;;;;;;;;;8.21;78.02;99565.50;1086856;54;1144;-78
2023/11/07 06:32:36;;;;;;;;;;;;;;;8.22;77.99;99553.84;1086752;54;1617;-79
2023/11/07 06:33:40;;;;;;;;;;;;;;;8.24;78.00;99559.88;1086849;54;1114;-79
2023/11/07 06:34:41;;;;;;;;;;;;;;;8.24;78.00;99567.88;1086876;54;1132;-78
2023/11/07 06:35:44;;;;;;;;;;;;;;;8.30;77.72;99562.97;1086600;46;1170;-80
2023/11/07 06:36:45;;;;;;;;;;;;;;;8.25;77.93;99566.06;1086853;47;1015;-78
2023/11/07 06:37:49;;;;;;;;;;;;;;;8.24;78.24;99570.53;1086575;54;1113;-79
2023/11/07 06:38:50;;;;;;;;;;;;;;;8.23;78.12;99565.34;1086859;46;1499;-79
2023/11/07 06:39:53;;;;;;;;;;;;;;;8.25;78.40;99566.06;1086639;54;1109;-79